Aeroporto :
LOGIN :

Iscrizione | Disclaimer

   EN    FR    IT 

 










Sommario :    VFR   VFR Marginale   IFR   IFR Intensivo   IFR Molto Intensivo
Visibilità : 
Base nubi : 
>= 8 km
>= 3000ft
5 / 8 km
1000 / 3000 ft
1500m / 5 km
500 / 1000 ft
800 / 1500m
200 / 500 ft
< 800m
< 200 ft
Simboli :   Temporali  Nebbia  Neve Forte  Precipitazioni Forti  Vento > 20 kt
SIGMETs :   Varie  Temporali  Ghiacco  Turbolenza  Onda orograficha  Ceneri Vulcaniche







- Altitudine del aeroporto : 20 ft


EBFN - Koksijde

ULTIMO METAR :
  • 250825Z 28003KT 0600 FG BKN001 13/13 Q1018 RED RED BECMG AMB

METARs OBSOLETI :
  • 250816Z 27004KT 0500 FG BKN001 13/13 Q1018 RED RED BECMG AMB
  • 250755Z 28004KT 0200 FG BKN001 13/13 Q1018 RED RED TEMPO AMB
  • 250725Z 24005KT 0300 FG BKN001 13/13 Q1018 RED RED TEMPO AMB
  • 250703Z 23006KT 0300 FG BKN001 13/13 Q1018 RED RED TEMPO AMB
  • 250655Z 24005KT 0150 FG BKN001 13/13 Q1018 RED RED
  • 250625Z 23006KT 0150 FG BKN002 13/13 Q1017 RED RED
  • 250555Z 23006KT 0150 FG BKN002 12/12 Q1017 RED RED

Previsioni scadute.
Nessun NOTAM noto per questo aeroporto.



MetMap, La meteo Aeronautica in un colpo d'occhio ! - Copyright ORBIFLY Dicembre 2007 - Disclaimer

ORBIFLY MET'MAP TEAM :

Programmazione e sviluppo : Alexandra Zaïnal
Concezione e sviluppo : Baudouin d'Aumeries
Co-Programmazione e sviluppo : Marc-Olivier Méhu
Supporto tecnico e logistico : Manuel Goepfert
Aiuto per la traduzione : Arnaldo La Scala

Contatto : metmap@orbifly.com




FONTI E CREDITI :

   NOAA